sensor_id;sensor_type;location;lat;lon;timestamp;pressure;altitude;pressure_sealevel;temperature;humidity
41254;BME280;26987;59.928;30.306;2023-12-20T00:00:14;98421.84;;;0.01;100.00
41254;BME280;26987;59.928;30.306;2023-12-20T00:02:42;98420.22;;;0.00;100.00
41254;BME280;26987;59.928;30.306;2023-12-20T00:05:13;98419.81;;;0.03;100.00
41254;BME280;26987;59.928;30.306;2023-12-20T00:07:41;98420.59;;;-0.03;100.00
41254;BME280;26987;59.928;30.306;2023-12-20T00:10:09;98422.84;;;0.00;100.00
41254;BME280;26987;59.928;30.306;2023-12-20T00:12:39;98417.16;;;0.03;100.00
41254;BME280;26987;59.928;30.306;2023-12-20T00:15:09;98405.63;;;0.04;100.00
41254;BME280;26987;59.928;30.306;2023-12-20T00:17:37;98428.84;;;0.22;100.00
41254;BME280;26987;59.928;30.306;2023-12-20T00:20:06;98416.69;;;0.28;100.00
41254;BME280;26987;59.928;30.306;2023-12-20T00:22:34;98428.69;;;0.37;100.00
41254;BME280;26987;59.928;30.306;2023-12-20T00:25:02;98417.13;;;0.39;100.00
41254;BME280;26987;59.928;30.306;2023-12-20T00:27:30;98419.00;;;0.45;100.00
41254;BME280;26987;59.928;30.306;2023-12-20T00:29:58;98416.56;;;0.50;100.00
41254;BME280;26987;59.928;30.306;2023-12-20T00:32:27;98405.41;;;0.48;100.00
41254;BME280;26987;59.928;30.306;2023-12-20T00:34:55;98396.03;;;0.45;100.00
41254;BME280;26987;59.928;30.306;2023-12-20T00:37:23;98398.06;;;0.36;100.00
41254;BME280;26987;59.928;30.306;2023-12-20T00:39:51;98384.63;;;0.24;100.00
41254;BME280;26987;59.928;30.306;2023-12-20T00:42:19;98387.47;;;0.23;100.00
41254;BME280;26987;59.928;30.306;2023-12-20T00:44:47;98378.13;;;0.14;100.00
41254;BME280;26987;59.928;30.306;2023-12-20T00:47:17;98374.41;;;0.08;100.00
41254;BME280;26987;59.928;30.306;2023-12-20T00:49:46;98381.72;;;0.06;100.00
41254;BME280;26987;59.928;30.306;2023-12-20T00:52:14;98371.13;;;-0.01;100.00
41254;BME280;26987;59.928;30.306;2023-12-20T00:54:43;98380.91;;;0.05;100.00
41254;BME280;26987;59.928;30.306;2023-12-20T00:57:11;98378.13;;;0.14;100.00
41254;BME280;26987;59.928;30.306;2023-12-20T00:59:39;98372.03;;;0.20;100.00
41254;BME280;26987;59.928;30.306;2023-12-20T01:02:07;98362.75;;;0.24;100.00
41254;BME280;26987;59.928;30.306;2023-12-20T01:04:35;98335.94;;;0.14;100.00
41254;BME280;26987;59.928;30.306;2023-12-20T01:07:04;98372.94;;;0.41;100.00
41254;BME280;26987;59.928;30.306;2023-12-20T01:09:32;98364.00;;;0.42;100.00
41254;BME280;26987;59.928;30.306;2023-12-20T01:12:00;98351.22;;;0.39;100.00
41254;BME280;26987;59.928;30.306;2023-12-20T01:14:28;98346.75;;;0.39;100.00
41254;BME280;26987;59.928;30.306;2023-12-20T01:16:56;98355.47;;;0.40;100.00
41254;BME280;26987;59.928;30.306;2023-12-20T01:19:24;98358.34;;;0.45;100.00
41254;BME280;26987;59.928;30.306;2023-12-20T01:21:53;98352.88;;;0.46;100.00
41254;BME280;26987;59.928;30.306;2023-12-20T01:24:23;98367.28;;;0.57;100.00
41254;BME280;26987;59.928;30.306;2023-12-20T01:26:51;98370.75;;;0.65;100.00
41254;BME280;26987;59.928;30.306;2023-12-20T01:29:18;98368.13;;;0.71;100.00
41254;BME280;26987;59.928;30.306;2023-12-20T01:31:46;98368.94;;;0.72;100.00
41254;BME280;26987;59.928;30.306;2023-12-20T01:34:14;98368.72;;;0.67;100.00
41254;BME280;26987;59.928;30.306;2023-12-20T01:36:42;98365.47;;;0.71;100.00
41254;BME280;26987;59.928;30.306;2023-12-20T01:39:11;98364.06;;;0.69;100.00
41254;BME280;26987;59.928;30.306;2023-12-20T01:41:40;98355.75;;;0.72;100.00
41254;BME280;26987;59.928;30.306;2023-12-20T01:44:08;98351.28;;;0.66;100.00
41254;BME280;26987;59.928;30.306;2023-12-20T01:46:36;98347.81;;;0.58;100.00
41254;BME280;26987;59.928;30.306;2023-12-20T01:49:03;98342.72;;;0.50;100.00
41254;BME280;26987;59.928;30.306;2023-12-20T01:51:32;98339.69;;;0.46;100.00
41254;BME280;26987;59.928;30.306;2023-12-20T01:54:00;98309.19;;;0.23;100.00
41254;BME280;26987;59.928;30.306;2023-12-20T01:56:29;98344.72;;;0.34;100.00
41254;BME280;26987;59.928;30.306;2023-12-20T01:59:00;98332.34;;;0.35;100.00
41254;BME280;26987;59.928;30.306;2023-12-20T02:01:31;98333.16;;;0.35;100.00
41254;BME280;26987;59.928;30.306;2023-12-20T02:03:59;98337.22;;;0.31;100.00
41254;BME280;26987;59.928;30.306;2023-12-20T02:06:29;98339.25;;;0.36;100.00
41254;BME280;26987;59.928;30.306;2023-12-20T02:08:58;98340.28;;;0.42;100.00
41254;BME280;26987;59.928;30.306;2023-12-20T02:11:26;98342.72;;;0.43;100.00
41254;BME280;26987;59.928;30.306;2023-12-20T02:13:54;98331.78;;;0.46;100.00
41254;BME280;26987;59.928;30.306;2023-12-20T02:16:23;98330.34;;;0.50;100.00
41254;BME280;26987;59.928;30.306;2023-12-20T02:18:51;98335.63;;;0.50;100.00
41254;BME280;26987;59.928;30.306;2023-12-20T02:21:24;98316.53;;;0.42;100.00
41254;BME280;26987;59.928;30.306;2023-12-20T02:23:52;98325.03;;;0.44;100.00
41254;BME280;26987;59.928;30.306;2023-12-20T02:26:20;98324.81;;;0.32;100.00
41254;BME280;26987;59.928;30.306;2023-12-20T02:28:48;98326.25;;;0.34;100.00
41254;BME280;26987;59.928;30.306;2023-12-20T02:31:16;98326.25;;;0.34;100.00
41254;BME280;26987;59.928;30.306;2023-12-20T02:33:44;98329.50;;;0.36;100.00
41254;BME280;26987;59.928;30.306;2023-12-20T02:36:12;98330.94;;;0.39;100.00
41254;BME280;26987;59.928;30.306;2023-12-20T02:38:41;98329.50;;;0.36;100.00
41254;BME280;26987;59.928;30.306;2023-12-20T02:41:09;98325.88;;;0.44;100.00
41254;BME280;26987;59.928;30.306;2023-12-20T02:43:37;98347.00;;;0.51;100.00
41254;BME280;26987;59.928;30.306;2023-12-20T02:46:05;98325.66;;;0.46;100.00
41254;BME280;26987;59.928;30.306;2023-12-20T02:48:33;98326.06;;;0.36;100.00
41254;BME280;26987;59.928;30.306;2023-12-20T02:51:00;98319.34;;;0.27;100.00
41254;BME280;26987;59.928;30.306;2023-12-20T02:53:28;98316.66;;;0.13;100.00
41254;BME280;26987;59.928;30.306;2023-12-20T02:55:58;98307.31;;;0.04;100.00
41254;BME280;26987;59.928;30.306;2023-12-20T02:58:26;98322.94;;;0.05;100.00
41254;BME280;26987;59.928;30.306;2023-12-20T03:00:53;98316.44;;;0.01;100.00
41254;BME280;26987;59.928;30.306;2023-12-20T03:03:21;98325.34;;;0.00;100.00
41254;BME280;26987;59.928;30.306;2023-12-20T03:05:49;98315.41;;;0.02;100.00
41254;BME280;26987;59.928;30.306;2023-12-20T03:08:17;98299.16;;;-0.08;100.00
41254;BME280;26987;59.928;30.306;2023-12-20T03:10:45;98308.13;;;0.04;100.00
41254;BME280;26987;59.928;30.306;2023-12-20T03:13:14;98303.66;;;-0.02;100.00
41254;BME280;26987;59.928;30.306;2023-12-20T03:15:42;98322.97;;;0.12;100.00
41254;BME280;26987;59.928;30.306;2023-12-20T03:18:10;98326.63;;;0.18;100.00
41254;BME280;26987;59.928;30.306;2023-12-20T03:20:38;98318.13;;;0.22;100.00
41254;BME280;26987;59.928;30.306;2023-12-20T03:23:07;98323.44;;;0.36;100.00
41254;BME280;26987;59.928;30.306;2023-12-20T03:25:35;98323.22;;;0.44;100.00
41254;BME280;26987;59.928;30.306;2023-12-20T03:28:03;98322.25;;;0.52;100.00
41254;BME280;26987;59.928;30.306;2023-12-20T03:30:33;98323.44;;;0.56;100.00
41254;BME280;26987;59.928;30.306;2023-12-20T03:33:00;98317.38;;;0.62;100.00
41254;BME280;26987;59.928;30.306;2023-12-20T03:35:28;98330.78;;;0.68;100.00
41254;BME280;26987;59.928;30.306;2023-12-20T03:37:56;98311.09;;;0.70;100.00
41254;BME280;26987;59.928;30.306;2023-12-20T03:40:26;98316.16;;;0.79;100.00
41254;BME280;26987;59.928;30.306;2023-12-20T03:42:54;98323.47;;;0.83;100.00
41254;BME280;26987;59.928;30.306;2023-12-20T03:45:22;98316.19;;;0.85;100.00
41254;BME280;26987;59.928;30.306;2023-12-20T03:47:51;98323.28;;;0.85;100.00
41254;BME280;26987;59.928;30.306;2023-12-20T03:50:22;98314.34;;;0.86;100.00
41254;BME280;26987;59.928;30.306;2023-12-20T03:52:50;98304.81;;;0.78;100.00
41254;BME280;26987;59.928;30.306;2023-12-20T03:55:18;98274.53;;;0.47;100.00
41254;BME280;26987;59.928;30.306;2023-12-20T03:57:49;98305.44;;;0.73;100.00
41254;BME280;26987;59.928;30.306;2023-12-20T04:00:17;98309.69;;;0.81;100.00
41254;BME280;26987;59.928;30.306;2023-12-20T04:02:45;98280.03;;;0.52;100.00
41254;BME280;26987;59.928;30.306;2023-12-20T04:05:14;98310.69;;;0.80;100.00
41254;BME280;26987;59.928;30.306;2023-12-20T04:07:42;98315.56;;;0.83;100.00
41254;BME280;26987;59.928;30.306;2023-12-20T04:10:10;98315.78;;;0.75;100.00
41254;BME280;26987;59.928;30.306;2023-12-20T04:12:38;98323.09;;;0.80;100.00
41254;BME280;26987;59.928;30.306;2023-12-20T04:15:06;98333.00;;;0.84;100.00
41254;BME280;26987;59.928;30.306;2023-12-20T04:17:35;98337.69;;;0.89;100.00
41254;BME280;26987;59.928;30.306;2023-12-20T04:20:04;98325.91;;;0.85;100.00
41254;BME280;26987;59.928;30.306;2023-12-20T04:22:34;98325.94;;;0.92;100.00
41254;BME280;26987;59.928;30.306;2023-12-20T04:25:01;98328.38;;;0.93;100.00
41254;BME280;26987;59.928;30.306;2023-12-20T04:27:30;98338.31;;;0.98;100.00
41254;BME280;26987;59.928;30.306;2023-12-20T04:29:57;98332.03;;;0.99;100.00
41254;BME280;26987;59.928;30.306;2023-12-20T04:32:25;98348.88;;;1.05;100.00
41254;BME280;26987;59.928;30.306;2023-12-20T04:34:53;98342.75;;;1.04;100.00
41254;BME280;26987;59.928;30.306;2023-12-20T04:37:21;98339.91;;;1.06;100.00
41254;BME280;26987;59.928;30.306;2023-12-20T04:39:50;98330.16;;;0.99;100.00
41254;BME280;26987;59.928;30.306;2023-12-20T04:42:18;98331.22;;;0.92;100.00
41254;BME280;26987;59.928;30.306;2023-12-20T04:44:54;98320.63;;;0.85;100.00
41254;BME280;26987;59.928;30.306;2023-12-20T04:47:46;98340.13;;;0.91;100.00
41254;BME280;26987;59.928;30.306;2023-12-20T04:50:36;98252.44;;;0.34;100.00
41254;BME280;26987;59.928;30.306;2023-12-20T04:53:05;98316.56;;;0.75;100.00
41254;BME280;26987;59.928;30.306;2023-12-20T04:55:34;98308.47;;;0.70;100.00
41254;BME280;26987;59.928;30.306;2023-12-20T04:58:02;98321.25;;;0.73;100.00
41254;BME280;26987;59.928;30.306;2023-12-20T05:00:33;98338.09;;;0.86;100.00
41254;BME280;26987;59.928;30.306;2023-12-20T05:03:01;98344.22;;;0.93;100.00
41254;BME280;26987;59.928;30.306;2023-12-20T05:05:28;98355.56;;;0.94;100.00
41254;BME280;26987;59.928;30.306;2023-12-20T05:07:56;98340.34;;;0.82;100.00
41254;BME280;26987;59.928;30.306;2023-12-20T05:10:24;98373.84;;;1.02;100.00
41254;BME280;26987;59.928;30.306;2023-12-20T05:12:54;98372.41;;;1.06;100.00
41254;BME280;26987;59.928;30.306;2023-12-20T05:15:22;98366.94;;;1.08;100.00
41254;BME280;26987;59.928;30.306;2023-12-20T05:17:50;98359.63;;;1.10;100.00
41254;BME280;26987;59.928;30.306;2023-12-20T05:20:18;98374.66;;;1.23;100.00
41254;BME280;26987;59.928;30.306;2023-12-20T05:22:46;98372.63;;;1.25;100.00
41254;BME280;26987;59.928;30.306;2023-12-20T05:25:14;98372.63;;;1.25;100.00
41254;BME280;26987;59.928;30.306;2023-12-20T05:27:42;98366.72;;;1.23;100.00
41254;BME280;26987;59.928;30.306;2023-12-20T05:30:14;98349.47;;;1.13;100.00
41254;BME280;26987;59.928;30.306;2023-12-20T05:32:42;98371.00;;;1.24;100.00
41254;BME280;26987;59.928;30.306;2023-12-20T05:35:10;98360.44;;;1.24;100.00
41254;BME280;26987;59.928;30.306;2023-12-20T05:37:38;98346.25;;;1.11;100.00
41254;BME280;26987;59.928;30.306;2023-12-20T05:40:09;98362.06;;;1.25;100.00
41254;BME280;26987;59.928;30.306;2023-12-20T05:42:37;98354.75;;;1.27;100.00
41254;BME280;26987;59.928;30.306;2023-12-20T05:45:05;98352.72;;;1.29;100.00
41254;BME280;26987;59.928;30.306;2023-12-20T05:47:35;98365.50;;;1.25;100.00
41254;BME280;26987;59.928;30.306;2023-12-20T05:50:03;98363.28;;;1.29;100.00
41254;BME280;26987;59.928;30.306;2023-12-20T05:52:31;98357.38;;;1.27;100.00
41254;BME280;26987;59.928;30.306;2023-12-20T05:54:59;98361.44;;;1.30;100.00
41254;BME280;26987;59.928;30.306;2023-12-20T05:57:28;98360.44;;;1.24;100.00
41254;BME280;26987;59.928;30.306;2023-12-20T05:59:56;98320.25;;;1.08;100.00
41254;BME280;26987;59.928;30.306;2023-12-20T06:02:24;98362.47;;;1.29;100.00
41254;BME280;26987;59.928;30.306;2023-12-20T06:04:53;98361.63;;;1.28;100.00
41254;BME280;26987;59.928;30.306;2023-12-20T06:07:21;98344.00;;;1.08;100.00
41254;BME280;26987;59.928;30.306;2023-12-20T06:09:49;98367.34;;;1.25;100.00
41254;BME280;26987;59.928;30.306;2023-12-20T06:12:20;98323.69;;;1.02;100.00
41254;BME280;26987;59.928;30.306;2023-12-20T06:14:47;98367.75;;;1.29;100.00
41254;BME280;26987;59.928;30.306;2023-12-20T06:17:15;98358.59;;;1.24;100.00
41254;BME280;26987;59.928;30.306;2023-12-20T06:19:43;98356.56;;;1.20;100.00
41254;BME280;26987;59.928;30.306;2023-12-20T06:22:15;98368.16;;;1.19;100.00
41254;BME280;26987;59.928;30.306;2023-12-20T06:24:43;98370.59;;;1.13;100.00
41254;BME280;26987;59.928;30.306;2023-12-20T06:27:11;98368.97;;;1.06;100.00
41254;BME280;26987;59.928;30.306;2023-12-20T06:29:53;98354.34;;;1.03;100.00
41254;BME280;26987;59.928;30.306;2023-12-20T06:32:21;98333.84;;;0.92;100.00
41254;BME280;26987;59.928;30.306;2023-12-20T06:34:50;98366.53;;;1.24;100.00
41254;BME280;26987;59.928;30.306;2023-12-20T06:37:19;98388.69;;;1.23;100.00
41254;BME280;26987;59.928;30.306;2023-12-20T06:39:47;98365.94;;;1.16;100.00
41254;BME280;26987;59.928;30.306;2023-12-20T06:42:15;98372.84;;;1.23;100.00
41254;BME280;26987;59.928;30.306;2023-12-20T06:44:43;98378.91;;;1.24;100.00
41254;BME280;26987;59.928;30.306;2023-12-20T06:47:10;98375.47;;;1.23;100.00
41254;BME280;26987;59.928;30.306;2023-12-20T06:49:40;98373.03;;;1.22;100.00
41254;BME280;26987;59.928;30.306;2023-12-20T06:52:08;98372.19;;;1.15;100.00
41254;BME280;26987;59.928;30.306;2023-12-20T06:54:40;98357.38;;;1.13;100.00
41254;BME280;26987;59.928;30.306;2023-12-20T06:57:07;98350.69;;;1.18;100.00
41254;BME280;26987;59.928;30.306;2023-12-20T06:59:38;98364.28;;;1.15;100.00
41254;BME280;26987;59.928;30.306;2023-12-20T07:02:08;98382.34;;;1.31;100.00
41254;BME280;26987;59.928;30.306;2023-12-20T07:04:39;98377.06;;;1.31;100.00
41254;BME280;26987;59.928;30.306;2023-12-20T07:07:07;98373.44;;;1.25;100.00
41254;BME280;26987;59.928;30.306;2023-12-20T07:09:35;98368.97;;;1.26;100.00
41254;BME280;26987;59.928;30.306;2023-12-20T07:12:06;98366.31;;;1.26;100.00
41254;BME280;26987;59.928;30.306;2023-12-20T07:14:34;98392.13;;;1.31;100.00
41254;BME280;26987;59.928;30.306;2023-12-20T07:17:02;98399.25;;;1.37;100.00
41254;BME280;26987;59.928;30.306;2023-12-20T07:19:30;98412.25;;;1.38;100.00
41254;BME280;26987;59.928;30.306;2023-12-20T07:21:58;98408.56;;;1.40;100.00
41254;BME280;26987;59.928;30.306;2023-12-20T07:24:26;98405.09;;;1.39;100.00
41254;BME280;26987;59.928;30.306;2023-12-20T07:26:54;98410.59;;;1.37;100.00
41254;BME280;26987;59.928;30.306;2023-12-20T07:29:23;98418.72;;;1.43;100.00
41254;BME280;26987;59.928;30.306;2023-12-20T07:31:52;98394.53;;;1.25;100.00
41254;BME280;26987;59.928;30.306;2023-12-20T07:34:20;98427.66;;;1.42;100.00
41254;BME280;26987;59.928;30.306;2023-12-20T07:36:48;98444.72;;;1.39;100.00
41254;BME280;26987;59.928;30.306;2023-12-20T07:39:16;98439.25;;;1.41;100.00
41254;BME280;26987;59.928;30.306;2023-12-20T07:41:45;98442.09;;;1.46;100.00
41254;BME280;26987;59.928;30.306;2023-12-20T07:44:13;98440.44;;;1.45;100.00
41254;BME280;26987;59.928;30.306;2023-12-20T07:46:43;98451.63;;;1.47;100.00
41254;BME280;26987;59.928;30.306;2023-12-20T07:49:11;98445.13;;;1.43;100.00
41254;BME280;26987;59.928;30.306;2023-12-20T07:51:39;98451.44;;;1.48;100.00
41254;BME280;26987;59.928;30.306;2023-12-20T07:54:06;98461.59;;;1.51;100.00
41254;BME280;26987;59.928;30.306;2023-12-20T07:56:35;98329.56;;;0.57;100.00
41254;BME280;26987;59.928;30.306;2023-12-20T07:59:03;98465.06;;;1.52;100.00
41254;BME280;26987;59.928;30.306;2023-12-20T08:01:31;98469.31;;;1.53;100.00
41254;BME280;26987;59.928;30.306;2023-12-20T08:04:00;98475.00;;;1.50;100.00
41254;BME280;26987;59.928;30.306;2023-12-20T08:06:28;98442.28;;;1.31;100.00
41254;BME280;26987;59.928;30.306;2023-12-20T08:08:56;98485.75;;;1.55;100.00
41254;BME280;26987;59.928;30.306;2023-12-20T08:11:24;98472.16;;;1.51;100.00
41254;BME280;26987;59.928;30.306;2023-12-20T08:13:52;98487.81;;;1.53;100.00
41254;BME280;26987;59.928;30.306;2023-12-20T08:16:21;98471.13;;;1.39;100.00
41254;BME280;26987;59.928;30.306;2023-12-20T08:18:50;98482.94;;;1.50;100.00
41254;BME280;26987;59.928;30.306;2023-12-20T08:21:32;98500.63;;;1.56;100.00
41254;BME280;26987;59.928;30.306;2023-12-20T08:24:10;98485.97;;;1.40;100.00
41254;BME280;26987;59.928;30.306;2023-12-20T08:26:47;98472.53;;;1.28;100.00
41254;BME280;26987;59.928;30.306;2023-12-20T08:29:16;98507.94;;;1.47;100.00
41254;BME280;26987;59.928;30.306;2023-12-20T08:31:44;98506.28;;;1.46;100.00
41254;BME280;26987;59.928;30.306;2023-12-20T08:34:13;98494.69;;;1.41;100.00
41254;BME280;26987;59.928;30.306;2023-12-20T08:36:43;98504.03;;;1.43;100.00
41254;BME280;26987;59.928;30.306;2023-12-20T08:39:11;98485.53;;;1.30;100.00
41254;BME280;26987;59.928;30.306;2023-12-20T08:41:39;98515.44;;;1.50;100.00
41254;BME280;26987;59.928;30.306;2023-12-20T08:44:07;98515.25;;;1.52;100.00
41254;BME280;26987;59.928;30.306;2023-12-20T08:46:35;98522.75;;;1.55;100.00
41254;BME280;26987;59.928;30.306;2023-12-20T08:49:03;98507.72;;;1.49;100.00
41254;BME280;26987;59.928;30.306;2023-12-20T08:51:30;98521.75;;;1.56;100.00
41254;BME280;26987;59.928;30.306;2023-12-20T08:53:59;98496.94;;;1.44;100.00
41254;BME280;26987;59.928;30.306;2023-12-20T08:59:43;98485.97;;;1.33;100.00
41254;BME280;26987;59.928;30.306;2023-12-20T09:02:11;98529.88;;;1.61;100.00
41254;BME280;26987;59.928;30.306;2023-12-20T09:04:39;98533.53;;;1.60;100.00
41254;BME280;26987;59.928;30.306;2023-12-20T09:07:07;98543.28;;;1.60;100.00
41254;BME280;26987;59.928;30.306;2023-12-20T09:09:37;98527.00;;;1.49;100.00
41254;BME280;26987;59.928;30.306;2023-12-20T09:12:06;98545.50;;;1.63;100.00
41254;BME280;26987;59.928;30.306;2023-12-20T09:14:34;98542.88;;;1.63;100.00
41254;BME280;26987;59.928;30.306;2023-12-20T09:17:02;98553.25;;;1.64;100.00
41254;BME280;26987;59.928;30.306;2023-12-20T09:19:30;98550.59;;;1.64;100.00
41254;BME280;26987;59.928;30.306;2023-12-20T09:21:58;98544.91;;;1.68;100.00
41254;BME280;26987;59.928;30.306;2023-12-20T09:24:26;98546.97;;;1.66;100.00
41254;BME280;26987;59.928;30.306;2023-12-20T09:26:55;98557.53;;;1.66;100.00
41254;BME280;26987;59.928;30.306;2023-12-20T09:29:23;98557.53;;;1.66;100.00
41254;BME280;26987;59.928;30.306;2023-12-20T09:31:51;98556.47;;;1.60;100.00
41254;BME280;26987;59.928;30.306;2023-12-20T09:34:19;98554.69;;;1.67;100.00
41254;BME280;26987;59.928;30.306;2023-12-20T09:36:48;98570.53;;;1.60;100.00
41254;BME280;26987;59.928;30.306;2023-12-20T09:39:17;98582.72;;;1.55;100.00
41254;BME280;26987;59.928;30.306;2023-12-20T09:41:51;98536.34;;;1.32;100.00
41254;BME280;26987;59.928;30.306;2023-12-20T09:44:24;98569.31;;;1.56;100.00
41254;BME280;26987;59.928;30.306;2023-12-20T09:46:53;98591.25;;;1.63;100.00
41254;BME280;26987;59.928;30.306;2023-12-20T09:49:22;98582.31;;;1.64;100.00
41254;BME280;26987;59.928;30.306;2023-12-20T09:51:50;98593.66;;;1.58;100.00
41254;BME280;26987;59.928;30.306;2023-12-20T09:54:20;98588.38;;;1.58;100.00
41254;BME280;26987;59.928;30.306;2023-12-20T09:56:49;98607.94;;;1.71;100.00
41254;BME280;26987;59.928;30.306;2023-12-20T09:59:17;98613.00;;;1.72;100.00
41254;BME280;26987;59.928;30.306;2023-12-20T10:01:47;98626.22;;;1.72;100.00
41254;BME280;26987;59.928;30.306;2023-12-20T10:04:16;98594.91;;;1.49;100.00
41254;BME280;26987;59.928;30.306;2023-12-20T10:06:44;98629.06;;;1.64;100.00
41254;BME280;26987;59.928;30.306;2023-12-20T10:09:12;98622.53;;;1.60;100.00
41254;BME280;26987;59.928;30.306;2023-12-20T10:11:40;98635.38;;;1.70;100.00
41254;BME280;26987;59.928;30.306;2023-12-20T10:14:10;98639.63;;;1.71;100.00
41254;BME280;26987;59.928;30.306;2023-12-20T10:16:39;98644.72;;;1.72;100.00
41254;BME280;26987;59.928;30.306;2023-12-20T10:19:08;98640.84;;;1.75;100.00
41254;BME280;26987;59.928;30.306;2023-12-20T10:21:36;98616.81;;;1.49;100.00
41254;BME280;26987;59.928;30.306;2023-12-20T10:24:05;98652.66;;;1.66;100.00
41254;BME280;26987;59.928;30.306;2023-12-20T10:26:33;98634.75;;;1.61;100.00
41254;BME280;26987;59.928;30.306;2023-12-20T10:29:01;98640.81;;;1.61;100.00
41254;BME280;26987;59.928;30.306;2023-12-20T10:31:32;98661.81;;;1.76;100.00
41254;BME280;26987;59.928;30.306;2023-12-20T10:34:02;98626.41;;;1.50;100.00
41254;BME280;26987;59.928;30.306;2023-12-20T10:36:33;98659.59;;;1.80;100.00
41254;BME280;26987;59.928;30.306;2023-12-20T10:39:02;98669.75;;;1.83;100.00
41254;BME280;26987;59.928;30.306;2023-12-20T10:41:33;98665.88;;;1.79;100.00
41254;BME280;26987;59.928;30.306;2023-12-20T10:44:08;98666.88;;;1.78;100.00
41254;BME280;26987;59.928;30.306;2023-12-20T10:46:39;98676.66;;;1.78;100.00
41254;BME280;26987;59.928;30.306;2023-12-20T10:49:14;98667.88;;;1.70;100.00
41254;BME280;26987;59.928;30.306;2023-12-20T10:51:46;98684.38;;;1.79;100.00
41254;BME280;26987;59.928;30.306;2023-12-20T10:54:15;98673.41;;;1.75;100.00
41254;BME280;26987;59.928;30.306;2023-12-20T10:56:43;98693.94;;;1.80;100.00
41254;BME280;26987;59.928;30.306;2023-12-20T10:59:11;98701.44;;;1.76;100.00
41254;BME280;26987;59.928;30.306;2023-12-20T11:01:42;98684.34;;;1.66;100.00
41254;BME280;26987;59.928;30.306;2023-12-20T11:04:15;98709.16;;;1.78;100.00
41254;BME280;26987;59.928;30.306;2023-12-20T11:06:51;98644.44;;;1.40;100.00
41254;BME280;26987;59.928;30.306;2023-12-20T11:09:25;98710.44;;;1.82;100.00
41254;BME280;26987;59.928;30.306;2023-12-20T11:12:02;98712.44;;;1.80;100.00
41254;BME280;26987;59.928;30.306;2023-12-20T11:14:40;98712.22;;;1.75;100.00
41254;BME280;26987;59.928;30.306;2023-12-20T11:17:10;98716.50;;;1.76;100.00
41254;BME280;26987;59.928;30.306;2023-12-20T11:20:03;98725.06;;;1.85;100.00
41254;BME280;26987;59.928;30.306;2023-12-20T11:22:34;98738.47;;;1.83;100.00
41254;BME280;26987;59.928;30.306;2023-12-20T11:25:04;98716.91;;;1.73;100.00
41254;BME280;26987;59.928;30.306;2023-12-20T11:27:34;98735.41;;;1.80;100.00
41254;BME280;26987;59.928;30.306;2023-12-20T11:30:04;98735.59;;;1.78;100.00
41254;BME280;26987;59.928;30.306;2023-12-20T11:32:34;98718.91;;;1.71;100.00
41254;BME280;26987;59.928;30.306;2023-12-20T11:35:17;98742.53;;;1.79;100.00
41254;BME280;26987;59.928;30.306;2023-12-20T11:37:47;98746.34;;;1.70;100.00
41254;BME280;26987;59.928;30.306;2023-12-20T11:40:15;98750.84;;;1.76;100.00
41254;BME280;26987;59.928;30.306;2023-12-20T11:42:45;98753.25;;;1.71;100.00
41254;BME280;26987;59.928;30.306;2023-12-20T11:45:17;98745.13;;;1.66;100.00
41254;BME280;26987;59.928;30.306;2023-12-20T11:47:47;98751.44;;;1.71;100.00
41254;BME280;26987;59.928;30.306;2023-12-20T11:50:16;98753.06;;;1.72;100.00
41254;BME280;26987;59.928;30.306;2023-12-20T11:52:44;98762.41;;;1.68;100.00
41254;BME280;26987;59.928;30.306;2023-12-20T11:55:13;98720.22;;;1.46;100.00
41254;BME280;26987;59.928;30.306;2023-12-20T11:57:42;98759.19;;;1.73;100.00
41254;BME280;26987;59.928;30.306;2023-12-20T12:00:12;98763.84;;;1.71;100.00
41254;BME280;26987;59.928;30.306;2023-12-20T12:02:41;98759.38;;;1.71;100.00
41254;BME280;26987;59.928;30.306;2023-12-20T12:05:08;98765.44;;;1.72;100.00
41254;BME280;26987;59.928;30.306;2023-12-20T12:07:36;98778.28;;;1.75;100.00
41254;BME280;26987;59.928;30.306;2023-12-20T12:10:05;98763.63;;;1.66;100.00
41254;BME280;26987;59.928;30.306;2023-12-20T12:12:36;98769.91;;;1.64;100.00
41254;BME280;26987;59.928;30.306;2023-12-20T12:15:05;98772.34;;;1.66;100.00
41254;BME280;26987;59.928;30.306;2023-12-20T12:17:33;98764.22;;;1.61;100.00
41254;BME280;26987;59.928;30.306;2023-12-20T12:20:05;98774.59;;;1.62;100.00
41254;BME280;26987;59.928;30.306;2023-12-20T12:22:35;98791.28;;;1.70;100.00
41254;BME280;26987;59.928;30.306;2023-12-20T12:25:10;98773.56;;;1.63;100.00
41254;BME280;26987;59.928;30.306;2023-12-20T12:27:41;98788.19;;;1.66;100.00
41254;BME280;26987;59.928;30.306;2023-12-20T12:30:10;98796.50;;;1.63;100.00
41254;BME280;26987;59.928;30.306;2023-12-20T12:32:39;98805.91;;;1.66;100.00
41254;BME280;26987;59.928;30.306;2023-12-20T12:35:08;98806.88;;;1.64;100.00
41254;BME280;26987;59.928;30.306;2023-12-20T12:37:38;98768.53;;;1.33;100.00
41254;BME280;26987;59.928;30.306;2023-12-20T12:40:09;98813.78;;;1.59;100.00
41254;BME280;26987;59.928;30.306;2023-12-20T12:42:37;98820.75;;;1.67;100.00
41254;BME280;26987;59.928;30.306;2023-12-20T12:45:07;98835.16;;;1.64;100.00
41254;BME280;26987;59.928;30.306;2023-12-20T12:47:37;98834.34;;;1.63;100.00
41254;BME280;26987;59.928;30.306;2023-12-20T12:50:06;98834.53;;;1.62;100.00
41254;BME280;26987;59.928;30.306;2023-12-20T12:52:35;98834.28;;;1.57;100.00
41254;BME280;26987;59.928;30.306;2023-12-20T12:55:04;98840.78;;;1.54;100.00
41254;BME280;26987;59.928;30.306;2023-12-20T12:57:32;98836.25;;;1.48;100.00
41254;BME280;26987;59.928;30.306;2023-12-20T13:00:01;98835.88;;;1.51;100.00
41254;BME280;26987;59.928;30.306;2023-12-20T13:02:32;98844.63;;;1.51;100.00